Van Cleve, Kentucky
Current Conditions -  °F | °C
As of 1:55 AM on Sunday 26 Oct 2014 (Local Time) from KCEY Reporting Station
Clear Clear  
Wind Chill: 59°   Ceiling: Unl
Heat Index: 59°   Visibility: 3mi
Dew Point: 59°   Wind: 3mph
Humidity: 100%   Direction: 260°W
Pressure: 30"   Gusts: NA
Location:  36.618°N, 88.2562°W
Report Text: KCEY 260655Z AUTO 26003KT 3SM CLR 15/15 A3000 RMK AO1
Loading
Personal Weather Stations






























Interactive Weather Map
Tropical Storm Tracking
New forecast layout! Learn more

10-Day Weather Forecast

Advertisements
Track Severe Weather on mobile